Time;durP1;ratioP1;P1;durP2;ratioP2;P2;SDS_P1;SDS_P2;PMS_P1;PMS_P2;Temp;Humidity;BMP_temperature;BMP_pressure;BME280_temperature;BME280_humidity;BME280_pressure;Samples;Min_cycle;Max_cycle;Signal;HPM_P1;HPM_P2
2021/04/23 00:01:23;;;;;;;11.50;7.30;;;;;;;3.04;78.86;101455.44;5109317;28;20207;-77
2021/04/23 00:03:52;;;;;;;7.73;6.20;;;;;;;3.05;79.38;101454.59;5110933;28;20277;-76
2021/04/23 00:06:21;;;;;;;7.57;6.43;;;;;;;3.07;79.23;101457.22;5110388;28;20224;-78
2021/04/23 00:08:50;;;;;;;9.47;6.53;;;;;;;3.12;79.32;101455.66;5111214;27;20249;-77
2021/04/23 00:11:18;;;;;;;14.07;6.43;;;;;;;3.17;79.14;101454.94;5109777;28;20202;-76
2021/04/23 00:13:44;;;;;;;12.30;7.57;;;;;;;3.24;79.42;101460.28;5110085;28;20227;-76
2021/04/23 00:16:11;;;;;;;11.50;7.03;;;;;;;3.31;79.40;101450.16;5109314;27;20713;-77
2021/04/23 00:18:38;;;;;;;15.03;6.60;;;;;;;3.44;78.53;101458.22;5110371;28;20199;-76
2021/04/23 00:21:06;;;;;;;16.33;6.90;;;;;;;3.51;78.70;101457.56;5109953;27;20206;-77
2021/04/23 00:23:33;;;;;;;11.80;6.63;;;;;;;3.52;78.30;101449.84;5110468;28;20199;-77
2021/04/23 00:25:59;;;;;;;9.93;7.20;;;;;;;3.51;78.84;101447.25;5108889;28;20238;-77
2021/04/23 00:28:25;;;;;;;15.60;7.50;;;;;;;3.53;79.12;101448.16;5109899;28;20749;-76
2021/04/23 00:30:53;;;;;;;10.93;7.33;;;;;;;3.63;78.42;101450.13;5110177;27;20203;-77
2021/04/23 00:33:22;;;;;;;11.10;6.90;;;;;;;3.68;78.62;101456.28;5109880;28;20212;-77
2021/04/23 00:35:50;;;;;;;9.83;6.50;;;;;;;3.72;79.07;101454.66;5110146;27;20260;-77
2021/04/23 00:38:19;;;;;;;10.77;6.80;;;;;;;3.73;79.07;101457.28;5111130;28;20604;-77
2021/04/23 00:40:50;;;;;;;10.07;6.87;;;;;;;3.77;79.06;101451.34;5109759;28;20531;-77
2021/04/23 00:43:17;;;;;;;7.53;6.37;;;;;;;3.88;78.20;101456.78;5109656;28;20318;-77
2021/04/23 00:45:43;;;;;;;13.53;6.33;;;;;;;3.94;77.97;101451.78;5110475;27;20222;-77
2021/04/23 00:48:10;;;;;;;11.70;6.37;;;;;;;3.96;78.30;101444.94;5109476;28;20195;-77
2021/04/23 00:50:40;;;;;;;10.20;7.07;;;;;;;3.96;78.51;101438.88;5110144;27;20207;-77
2021/04/23 00:53:08;;;;;;;10.50;6.40;;;;;;;3.98;77.94;101443.28;5109377;28;20673;-77
2021/04/23 00:55:37;;;;;;;9.80;6.53;;;;;;;3.95;78.01;101437.16;5109945;27;20637;-77
2021/04/23 00:58:05;;;;;;;10.37;6.50;;;;;;;4.04;78.26;101437.34;5110119;28;20208;-77
2021/04/23 01:00:32;;;;;;;10.90;7.43;;;;;;;4.06;77.88;101439.97;5109325;28;20218;-77
2021/04/23 01:02:57;;;;;;;9.37;5.73;;;;;;;4.09;77.63;101440.06;5109225;28;20206;-77
2021/04/23 01:05:33;;;;;;;9.03;5.80;;;;;;;4.10;78.12;101437.53;5110269;27;20201;-77
2021/04/23 01:08:00;;;;;;;9.50;6.70;;;;;;;4.08;77.92;101441.75;5109908;28;20285;-78
2021/04/23 01:10:26;;;;;;;11.90;6.40;;;;;;;4.11;77.49;101438.41;5109144;28;20683;-76
2021/04/23 01:12:53;;;;;;;9.50;6.77;;;;;;;4.16;77.51;101445.44;5108942;28;20268;-77
2021/04/23 01:15:19;;;;;;;9.97;6.10;;;;;;;4.17;76.94;101444.56;5109888;27;20972;-76
2021/04/23 01:17:45;;;;;;;12.33;6.60;;;;;;;4.15;76.69;101442.81;5108887;28;20214;-77
2021/04/23 01:20:12;;;;;;;8.77;6.23;;;;;;;4.10;76.83;101439.22;5109662;27;20594;-77
2021/04/23 01:22:39;;;;;;;9.87;6.07;;;;;;;4.08;77.80;101441.75;5109012;28;20256;-78
2021/04/23 01:25:06;;;;;;;14.07;6.87;;;;;;;4.09;77.63;101446.09;5109979;28;20669;-77
2021/04/23 01:27:32;;;;;;;9.87;6.70;;;;;;;4.13;76.83;101445.34;5107444;28;20280;-77
2021/04/23 01:29:58;;;;;;;12.53;7.63;;;;;;;4.10;77.41;101453.03;5109190;27;21049;-77
2021/04/23 01:32:24;;;;;;;12.97;6.80;;;;;;;4.11;77.46;101454.75;5108642;28;20203;-78
2021/04/23 01:34:51;;;;;;;8.47;6.27;;;;;;;4.13;77.15;101454.81;5108628;28;20223;-77
2021/04/23 01:37:17;;;;;;;13.17;7.00;;;;;;;4.18;77.47;101448.03;5109454;28;20227;-77
2021/04/23 01:39:44;;;;;;;8.07;6.37;;;;;;;4.16;76.93;101455.75;5108630;28;20203;-76
2021/04/23 01:42:12;;;;;;;8.83;6.63;;;;;;;4.15;77.25;101441.06;5108927;28;20202;-76
2021/04/23 01:44:39;;;;;;;13.20;6.70;;;;;;;4.21;76.49;101449.81;5108841;28;20203;-77
2021/04/23 01:47:06;;;;;;;9.93;6.73;;;;;;;4.21;76.70;101453.28;5108818;28;20223;-77
2021/04/23 01:49:33;;;;;;;10.57;6.07;;;;;;;4.30;76.75;101448.34;5109082;28;20207;-77
2021/04/23 01:52:04;;;;;;;9.30;6.47;;;;;;;4.35;76.33;101453.59;5109424;27;20207;-77
2021/04/23 01:54:30;;;;;;;8.57;7.00;;;;;;;4.27;76.44;101456.00;5108951;28;20215;-77
2021/04/23 01:56:58;;;;;;;7.87;6.90;;;;;;;4.30;76.52;101456.09;5108972;28;20263;-77
2021/04/23 01:59:25;;;;;;;10.97;7.13;;;;;;;4.25;76.20;101460.25;5109340;28;20294;-76
2021/04/23 02:01:51;;;;;;;12.37;5.70;;;;;;;4.30;75.99;101463.84;5108238;28;20221;-77
2021/04/23 02:04:18;;;;;;;11.07;6.70;;;;;;;4.36;75.67;101457.91;5108782;28;20196;-77
2021/04/23 02:06:45;;;;;;;8.00;6.23;;;;;;;4.38;76.17;101461.44;5108747;28;20223;-76
2021/04/23 02:09:12;;;;;;;6.77;6.07;;;;;;;4.36;75.97;101463.97;5108402;28;20226;-76
2021/04/23 02:11:40;;;;;;;13.23;6.87;;;;;;;4.36;75.90;101461.41;5108486;28;20210;-77
2021/04/23 02:14:07;;;;;;;9.97;6.00;;;;;;;4.25;76.83;101469.72;5109046;28;20222;-77
2021/04/23 02:16:34;;;;;;;9.47;5.80;;;;;;;4.33;76.44;101473.38;5108384;28;20223;-78
2021/04/23 02:19:01;;;;;;;14.03;6.27;;;;;;;4.41;76.19;101468.38;5108047;28;20208;-77
2021/04/23 02:21:28;;;;;;;9.83;6.70;;;;;;;4.44;75.98;101477.09;5108700;28;20606;-77
2021/04/23 02:23:54;;;;;;;11.07;7.37;;;;;;;4.30;76.54;101471.59;5108539;28;20233;-77
2021/04/23 02:26:21;;;;;;;11.07;7.47;;;;;;;4.37;76.79;101476.03;5107545;28;20224;-76
2021/04/23 02:28:49;;;;;;;9.90;6.60;;;;;;;4.42;76.19;101478.75;5108601;28;20223;-78
2021/04/23 02:31:19;;;;;;;10.73;6.80;;;;;;;4.43;76.21;101482.22;5108217;28;20214;-77
2021/04/23 02:33:49;;;;;;;15.13;7.40;;;;;;;4.35;76.46;101479.44;5107570;28;20210;-78
2021/04/23 02:36:15;;;;;;;8.70;7.20;;;;;;;4.40;76.45;101487.28;5108069;28;20248;-76
2021/04/23 02:38:41;;;;;;;8.87;7.33;;;;;;;4.47;76.27;101484.03;5109930;28;20286;-77
2021/04/23 02:41:07;;;;;;;10.77;6.63;;;;;;;4.40;75.83;101477.84;5112268;27;20203;-77
2021/04/23 02:43:36;;;;;;;7.10;6.23;;;;;;;4.36;75.90;101479.47;5111628;27;20741;-76
2021/04/23 02:46:03;;;;;;;12.87;6.13;;;;;;;4.37;75.81;101485.53;5112321;27;20223;-77
2021/04/23 02:48:32;;;;;;;9.20;6.60;;;;;;;4.39;75.72;101483.84;5112047;28;20593;-77
2021/04/23 02:51:01;;;;;;;9.73;5.90;;;;;;;4.42;75.79;101485.63;5111126;27;20653;-77
2021/04/23 02:53:27;;;;;;;8.47;5.83;;;;;;;4.44;76.17;101481.34;5112013;28;20252;-76
2021/04/23 02:55:53;;;;;;;9.87;6.30;;;;;;;4.42;75.93;101490.78;5111902;28;20310;-77
2021/04/23 02:58:20;;;;;;;7.10;5.90;;;;;;;4.41;75.95;101489.06;5111166;28;20255;-77
2021/04/23 03:00:49;;;;;;;9.30;5.77;;;;;;;4.44;75.85;101494.28;5111058;27;20219;-76
2021/04/23 03:03:15;;;;;;;12.90;6.73;;;;;;;4.38;76.21;101495.03;5111792;28;20199;-77
2021/04/23 03:05:45;;;;;;;10.40;6.37;;;;;;;4.40;76.01;101488.19;5110984;28;20604;-77
2021/04/23 03:08:12;;;;;;;7.97;5.90;;;;;;;4.38;75.89;101497.63;5113006;28;20211;-77
2021/04/23 03:10:41;;;;;;;11.10;6.80;;;;;;;4.40;76.61;101495.94;5111411;27;20264;-77
2021/04/23 03:13:11;;;;;;;10.50;6.07;;;;;;;4.33;76.43;101489.75;5111988;28;20207;-77
2021/04/23 03:15:37;;;;;;;10.93;6.57;;;;;;;4.33;76.31;101502.66;5111579;27;20239;-77
2021/04/23 03:18:03;;;;;;;9.43;7.07;;;;;;;4.38;76.14;101500.22;5111368;28;20199;-77
2021/04/23 03:20:31;;;;;;;10.07;6.03;;;;;;;4.35;76.77;101498.41;5111286;27;20203;-77
2021/04/23 03:22:58;;;;;;;11.00;7.43;;;;;;;4.34;76.20;101488.00;5110875;28;20211;-77
2021/04/23 03:25:25;;;;;;;8.73;6.77;;;;;;;4.36;75.63;101495.00;5112199;27;20195;-76
2021/04/23 03:27:52;;;;;;;8.77;5.57;;;;;;;4.37;75.64;101481.22;5110516;28;20203;-77
2021/04/23 03:30:24;;;;;;;9.97;5.67;;;;;;;4.41;75.34;101476.13;5112123;28;20199;-77
2021/04/23 03:32:50;;;;;;;8.17;5.07;;;;;;;4.36;76.17;101476.91;5110132;28;20672;-77
2021/04/23 03:35:17;;;;;;;8.53;5.27;;;;;;;4.47;75.86;101476.28;5111214;28;20227;-77
2021/04/23 03:37:45;;;;;;;8.93;5.67;;;;;;;4.36;76.23;101476.00;5111862;28;20661;-76
2021/04/23 03:40:13;;;;;;;8.10;5.57;;;;;;;4.40;75.33;101476.94;5110634;28;20210;-77
2021/04/23 03:42:41;;;;;;;7.30;5.07;;;;;;;4.34;75.41;101488.00;5111323;28;20207;-77
2021/04/23 03:45:09;;;;;;;8.20;4.90;;;;;;;4.40;74.58;101482.13;5111758;27;20203;-76
2021/04/23 03:47:35;;;;;;;9.80;5.50;;;;;;;4.39;74.88;101483.84;5109534;28;20232;-77
2021/04/23 03:50:01;;;;;;;7.60;5.40;;;;;;;4.36;75.90;101479.47;5110522;28;20204;-76
2021/04/23 03:52:27;;;;;;;9.37;5.90;;;;;;;4.35;75.82;101472.56;5110357;27;20218;-77
2021/04/23 03:54:53;;;;;;;6.57;5.10;;;;;;;4.40;75.68;101474.38;5111532;27;20723;-77
2021/04/23 03:57:20;;;;;;;6.87;5.27;;;;;;;4.38;75.69;101477.81;5110509;28;20235;-76
2021/04/23 03:59:46;;;;;;;8.27;5.57;;;;;;;4.37;75.46;101482.94;5111609;27;20207;-77
2021/04/23 04:02:12;;;;;;;9.07;5.30;;;;;;;4.37;75.87;101480.34;5110752;27;20203;-77
2021/04/23 04:04:38;;;;;;;9.10;6.03;;;;;;;4.41;75.77;101489.91;5110278;27;20203;-76
2021/04/23 04:07:04;;;;;;;7.43;5.27;;;;;;;4.49;74.83;101492.69;5109823;28;20314;-77
2021/04/23 04:09:30;;;;;;;7.27;5.30;;;;;;;4.49;75.02;101500.44;5110656;28;20207;-77
2021/04/23 04:11:56;;;;;;;8.63;5.20;;;;;;;4.56;75.35;101499.75;5109635;28;20572;-77
2021/04/23 04:14:23;;;;;;;9.00;4.90;;;;;;;4.57;75.01;101504.06;5110035;27;20315;-78
2021/04/23 04:16:49;;;;;;;6.30;5.40;;;;;;;4.56;74.52;101503.22;5109580;28;20281;-78
2021/04/23 04:19:15;;;;;;;7.30;5.10;;;;;;;4.62;74.62;101501.59;5110912;28;20195;-77
2021/04/23 04:21:41;;;;;;;10.53;6.20;;;;;;;4.64;74.65;101499.91;5109658;28;20199;-77
2021/04/23 04:24:07;;;;;;;8.40;4.87;;;;;;;4.65;74.83;101504.25;5110700;28;20200;-77
2021/04/23 04:26:34;;;;;;;9.80;5.77;;;;;;;4.69;74.70;101506.94;5109867;27;20708;-77
2021/04/23 04:28:59;;;;;;;9.07;5.73;;;;;;;4.55;75.03;101501.44;5110361;28;20195;-76
2021/04/23 04:31:26;;;;;;;6.53;4.97;;;;;;;4.53;74.83;101505.72;5110194;27;20213;-77
2021/04/23 04:33:52;;;;;;;9.00;5.10;;;;;;;4.53;74.93;101507.44;5109443;28;20215;-77
2021/04/23 04:36:18;;;;;;;8.87;5.07;;;;;;;4.56;74.97;101510.09;5110336;28;20276;-77
2021/04/23 04:38:45;;;;;;;9.07;5.93;;;;;;;4.54;74.42;101509.19;5110647;28;20673;-77
2021/04/23 04:41:11;;;;;;;7.20;4.63;;;;;;;4.54;74.72;101515.22;5109345;27;20207;-77
2021/04/23 04:43:37;;;;;;;11.73;5.33;;;;;;;4.58;74.89;101527.38;5110089;28;20331;-77
2021/04/23 04:46:03;;;;;;;9.33;4.60;;;;;;;4.62;74.42;101535.19;5109621;28;20257;-76
2021/04/23 04:48:30;;;;;;;7.77;5.20;;;;;;;4.62;74.83;101535.19;5110521;28;20215;-77
2021/04/23 04:50:58;;;;;;;10.70;5.37;;;;;;;4.66;75.02;101534.44;5109647;28;20361;-77
2021/04/23 04:53:25;;;;;;;8.37;4.67;;;;;;;4.63;74.73;101537.81;5109614;28;20203;-76
2021/04/23 04:55:53;;;;;;;9.37;5.03;;;;;;;4.59;74.68;101541.19;5109521;27;20300;-77
2021/04/23 04:58:23;;;;;;;8.10;5.90;;;;;;;4.60;74.90;101537.78;5109740;28;20199;-77
2021/04/23 05:00:50;;;;;;;7.60;4.63;;;;;;;4.57;74.83;101543.72;5110226;27;20279;-77
2021/04/23 05:03:16;;;;;;;11.63;4.60;;;;;;;4.59;74.94;101543.78;5110076;28;20215;-76
2021/04/23 05:05:44;;;;;;;9.23;4.93;;;;;;;4.63;74.26;101548.16;5109377;28;20238;-76
2021/04/23 05:08:10;;;;;;;7.87;5.23;;;;;;;4.68;74.91;101538.81;5109899;28;20211;-77
2021/04/23 05:10:37;;;;;;;8.40;4.60;;;;;;;4.69;74.25;101548.31;5110049;28;20207;-77
2021/04/23 05:13:03;;;;;;;7.37;4.67;;;;;;;4.72;74.13;101552.69;5110052;27;20204;-77
2021/04/23 05:15:29;;;;;;;7.77;5.10;;;;;;;4.67;74.31;101546.53;5110586;27;21067;-76
2021/04/23 05:17:55;;;;;;;7.13;5.53;;;;;;;4.80;74.33;101558.03;5107003;28;20204;-76
2021/04/23 05:20:22;;;;;;;7.83;4.57;;;;;;;4.74;73.55;101562.22;5108721;28;20225;-77
2021/04/23 05:22:49;;;;;;;5.97;4.70;;;;;;;4.77;74.31;101564.88;5108109;28;20673;-77
2021/04/23 05:25:19;;;;;;;5.60;4.10;;;;;;;4.72;74.24;101566.50;5110061;27;20571;-77
2021/04/23 05:27:45;;;;;;;5.40;4.33;;;;;;;4.70;74.27;101565.59;5107885;28;20276;-77
2021/04/23 05:30:13;;;;;;;8.33;4.63;;;;;;;4.71;74.38;101558.69;5110153;28;20199;-77
2021/04/23 05:32:40;;;;;;;5.87;4.17;;;;;;;4.74;74.19;101569.13;5108895;28;20211;-77
2021/04/23 05:35:09;;;;;;;7.90;4.10;;;;;;;4.76;73.49;101573.50;5109428;27;20222;-77
2021/04/23 05:37:35;;;;;;;7.87;4.67;;;;;;;4.86;74.17;101568.53;5107798;28;20228;-77
2021/04/23 05:40:05;;;;;;;6.40;5.00;;;;;;;4.95;74.01;101573.91;5107968;28;20231;-76
2021/04/23 05:42:31;;;;;;;6.20;4.83;;;;;;;5.02;73.87;101575.78;5108127;28;20203;-78
2021/04/23 05:44:57;;;;;;;6.57;5.13;;;;;;;5.04;72.29;101576.69;5109230;28;20257;-77
2021/04/23 05:47:23;;;;;;;8.90;4.37;;;;;;;5.07;72.31;101581.91;5107334;28;20630;-77
2021/04/23 05:49:49;;;;;;;7.63;4.50;;;;;;;5.10;72.63;101586.31;5109370;28;20214;-77
2021/04/23 05:52:16;;;;;;;8.77;4.40;;;;;;;5.23;71.44;101584.84;5107749;28;20203;-77
2021/04/23 05:54:42;;;;;;;6.53;4.23;;;;;;;5.21;70.95;101597.75;5108736;28;20581;-76
2021/04/23 05:57:09;;;;;;;7.60;4.60;;;;;;;5.25;71.30;101593.53;5108423;28;20223;-77
2021/04/23 05:59:35;;;;;;;7.50;4.67;;;;;;;5.32;70.72;101590.25;5107860;28;20790;-76
2021/04/23 06:02:01;;;;;;;5.70;4.43;;;;;;;5.28;71.17;101594.47;5108474;28;20671;-76
2021/04/23 06:04:28;;;;;;;6.43;4.27;;;;;;;5.35;70.03;101586.00;5108249;28;20785;-78
2021/04/23 06:06:54;;;;;;;5.83;4.30;;;;;;;5.39;70.02;101592.09;5109291;28;20235;-83
2021/04/23 06:09:20;;;;;;;6.27;4.23;;;;;;;5.46;70.19;101586.22;5111023;28;20207;-78
2021/04/23 06:11:46;;;;;;;7.60;4.37;;;;;;;5.43;70.77;101591.34;5113759;28;20229;-79
2021/04/23 06:14:12;;;;;;;6.53;5.17;;;;;;;5.44;69.73;101599.97;5115431;27;20207;-79
2021/04/23 06:16:39;;;;;;;15.10;5.60;;;;;;;5.46;69.87;101596.56;5117623;28;20717;-79
2021/04/23 06:19:05;;;;;;;6.90;4.83;;;;;;;5.35;70.04;101591.19;5116627;28;20215;-79
2021/04/23 06:21:32;;;;;;;7.40;4.47;;;;;;;5.49;70.46;101590.56;5117204;28;20237;-80
2021/04/23 06:23:58;;;;;;;10.67;4.97;;;;;;;5.56;70.25;101595.91;5122557;28;20204;-80
2021/04/23 06:26:24;;;;;;;8.03;5.10;;;;;;;5.56;70.19;101597.63;5119405;28;20260;-80
2021/04/23 06:28:50;;;;;;;7.30;4.13;;;;;;;5.55;69.37;101590.72;5128295;27;20208;-79
2021/04/23 06:31:17;;;;;;;10.87;4.90;;;;;;;5.66;70.20;101603.88;5126829;28;20199;-80
2021/04/23 06:33:46;;;;;;;5.13;4.47;;;;;;;5.84;68.45;101603.38;5128798;28;20222;-79
2021/04/23 06:36:13;;;;;;;8.67;4.47;;;;;;;5.87;67.25;101609.47;5127824;27;20227;-79
2021/04/23 06:38:40;;;;;;;6.37;4.50;;;;;;;5.96;67.52;101601.91;5128965;28;20222;-80
2021/04/23 06:41:06;;;;;;;6.13;4.57;;;;;;;5.91;67.90;101613.00;5126891;27;20232;-79
2021/04/23 06:43:32;;;;;;;6.40;5.10;;;;;;;5.83;68.30;101612.88;5127179;28;20260;-79
2021/04/23 06:45:58;;;;;;;5.57;4.83;;;;;;;6.04;69.74;101609.81;5125591;27;20230;-79
2021/04/23 06:48:26;;;;;;;8.00;5.50;;;;;;;5.96;68.78;101617.44;5128095;28;20207;-80
2021/04/23 06:50:52;;;;;;;9.37;4.77;;;;;;;5.95;69.13;101623.50;5125945;27;20255;-80
2021/04/23 06:53:19;;;;;;;6.87;4.90;;;;;;;5.96;68.71;101621.75;5127164;28;20203;-81
2021/04/23 06:55:46;;;;;;;7.13;5.90;;;;;;;5.99;67.94;101620.97;5127273;27;20227;-82
2021/04/23 06:58:12;;;;;;;7.10;4.30;;;;;;;6.00;67.67;101615.78;5124433;28;20700;-79
2021/04/23 07:00:39;;;;;;;9.13;5.70;;;;;;;6.11;68.27;101619.47;5119801;28;20210;-78
2021/04/23 07:03:09;;;;;;;5.73;5.07;;;;;;;6.14;66.77;101614.34;5111507;28;20288;-79
2021/04/23 07:05:36;;;;;;;7.17;4.97;;;;;;;6.11;66.02;101616.00;5115102;28;20660;-78
2021/04/23 07:08:02;;;;;;;9.37;5.20;;;;;;;6.09;67.00;101631.53;5113283;28;20197;-76
2021/04/23 07:10:30;;;;;;;5.40;4.87;;;;;;;6.29;67.68;101629.28;5112395;28;20749;-77
2021/04/23 07:12:56;;;;;;;9.80;5.43;;;;;;;6.16;67.13;101620.44;5111259;28;20208;-77
2021/04/23 07:15:26;;;;;;;6.90;4.67;;;;;;;6.25;67.14;101639.59;5112228;28;20227;-79
2021/04/23 07:17:52;;;;;;;6.67;5.27;;;;;;;6.44;66.18;101626.13;5112022;28;20206;-79
2021/04/23 07:20:19;;;;;;;8.83;5.07;;;;;;;6.41;65.77;101633.81;5112532;28;20202;-77
2021/04/23 07:22:47;;;;;;;7.47;5.77;;;;;;;6.24;66.30;101630.91;5112124;27;20207;-79
2021/04/23 07:25:15;;;;;;;10.33;5.53;;;;;;;6.16;67.40;101635.09;5111055;27;20196;-78
2021/04/23 07:27:41;;;;;;;6.43;5.43;;;;;;;6.34;66.73;101631.97;5111722;28;20245;-78
2021/04/23 07:30:10;;;;;;;6.70;5.60;;;;;;;6.37;65.46;101632.03;5112708;27;20203;-78
2021/04/23 07:32:36;;;;;;;9.20;5.73;;;;;;;6.36;65.69;101630.25;5111762;28;20207;-80
2021/04/23 07:35:02;;;;;;;7.33;5.10;;;;;;;6.46;65.67;101633.91;5112078;28;20284;-78
2021/04/23 07:37:28;;;;;;;6.37;5.00;;;;;;;6.35;64.36;101634.59;5109821;28;20235;-79
2021/04/23 07:39:55;;;;;;;7.83;5.20;;;;;;;6.23;64.38;101639.56;5112388;28;20212;-78
2021/04/23 07:42:21;;;;;;;11.23;5.50;;;;;;;6.33;65.42;101632.81;5110758;28;20752;-78
2021/04/23 07:44:47;;;;;;;11.33;5.60;;;;;;;6.16;66.25;101642.88;5111505;27;20672;-78
2021/04/23 07:47:13;;;;;;;9.90;5.50;;;;;;;6.20;64.63;101641.22;5111847;27;20252;-77
2021/04/23 07:49:39;;;;;;;8.43;5.50;;;;;;;6.27;64.64;101643.94;5111330;28;20211;-78
2021/04/23 07:52:06;;;;;;;5.93;4.97;;;;;;;6.36;64.20;101640.63;5109998;27;20207;-78
2021/04/23 07:54:32;;;;;;;7.73;5.03;;;;;;;6.57;64.32;101648.78;5111176;28;20227;-77
2021/04/23 07:57:00;;;;;;;7.50;5.57;;;;;;;6.78;63.60;101639.63;5111852;27;20228;-77
2021/04/23 07:59:26;;;;;;;6.97;5.27;;;;;;;6.84;64.03;101638.84;5112201;28;20212;-78
2021/04/23 08:01:54;;;;;;;8.33;5.20;;;;;;;6.74;64.11;101648.22;5111122;28;20216;-79
2021/04/23 08:04:20;;;;;;;11.63;5.33;;;;;;;6.80;63.11;101643.13;5111297;27;20287;-79
2021/04/23 08:06:46;;;;;;;5.50;4.67;;;;;;;6.74;63.55;101637.84;5110174;28;20394;-78
2021/04/23 08:09:12;;;;;;;9.27;5.07;;;;;;;6.88;62.95;101640.66;5110573;28;20206;-78
2021/04/23 08:11:39;;;;;;;6.73;5.10;;;;;;;6.99;63.13;101646.88;5111091;27;20602;-79
2021/04/23 08:14:06;;;;;;;7.17;4.80;;;;;;;7.11;62.83;101641.84;5110990;28;20222;-78
2021/04/23 08:16:32;;;;;;;6.70;5.10;;;;;;;7.12;62.67;101635.81;5110785;27;20231;-80
2021/04/23 08:18:58;;;;;;;8.70;4.80;;;;;;;7.16;61.97;101640.22;5112161;28;20293;-79
2021/04/23 08:21:24;;;;;;;11.20;5.20;;;;;;;7.29;62.21;101646.44;5110475;28;20657;-78
2021/04/23 08:23:51;;;;;;;6.20;4.70;;;;;;;7.53;61.12;101640.72;5111156;27;20292;-79
2021/04/23 08:26:18;;;;;;;12.67;5.20;;;;;;;7.62;61.54;101642.56;5111118;27;20219;-79
2021/04/23 08:28:44;;;;;;;6.57;5.00;;;;;;;7.62;60.08;101647.75;5112178;28;20283;-79
2021/04/23 08:31:11;;;;;;;8.90;5.30;;;;;;;7.39;62.43;101644.84;5112442;27;20618;-78
2021/04/23 08:33:37;;;;;;;9.20;5.37;;;;;;;7.28;60.41;101646.44;5110063;28;20586;-79
2021/04/23 08:36:04;;;;;;;7.47;4.27;;;;;;;7.40;58.96;101646.59;5111212;28;20231;-78
2021/04/23 08:38:30;;;;;;;6.27;3.97;;;;;;;7.31;59.22;101652.56;5110461;28;20211;-79
2021/04/23 08:40:57;;;;;;;9.60;4.47;;;;;;;7.30;58.81;101657.72;5110193;28;20216;-79
2021/04/23 08:43:24;;;;;;;6.77;4.37;;;;;;;7.40;58.49;101650.94;5109941;28;20203;-78
2021/04/23 08:45:51;;;;;;;6.93;4.73;;;;;;;7.69;59.78;101648.69;5111337;28;21045;-78
2021/04/23 08:48:18;;;;;;;5.83;4.60;;;;;;;7.97;59.50;101647.31;5111359;28;20210;-80
2021/04/23 08:50:46;;;;;;;7.07;4.53;;;;;;;7.95;59.07;101641.22;5110943;28;20204;-78
2021/04/23 08:53:12;;;;;;;8.40;4.93;;;;;;;7.99;59.92;101648.19;5109940;28;20634;-78
2021/04/23 08:55:38;;;;;;;9.03;6.07;;;;;;;7.98;59.39;101642.97;5110443;27;20243;-79
2021/04/23 08:58:05;;;;;;;6.73;4.40;;;;;;;7.58;60.29;101652.91;5110838;28;20200;-79
2021/04/23 09:00:31;;;;;;;5.90;4.20;;;;;;;7.51;58.51;101663.22;5111048;27;20266;-79
2021/04/23 09:02:57;;;;;;;7.00;4.73;;;;;;;7.46;58.72;101654.47;5109745;28;20207;-78
2021/04/23 09:05:24;;;;;;;7.70;4.90;;;;;;;7.75;58.61;101657.47;5110905;28;20207;-78
2021/04/23 09:08:01;;;;;;;6.97;4.53;;;;;;;7.94;58.33;101652.47;5109096;28;20208;-79
2021/04/23 09:10:27;;;;;;;9.47;5.27;;;;;;;8.15;57.61;101647.50;5111925;28;20761;-79
2021/04/23 09:13:08;;;;;;;10.10;5.53;;;;;;;8.03;58.28;101651.72;5111172;28;20206;-79
2021/04/23 09:15:36;;;;;;;8.70;5.30;;;;;;;7.75;60.11;101667.00;5110527;28;20223;-79
2021/04/23 09:18:07;;;;;;;6.40;4.13;;;;;;;7.74;59.70;101660.91;5110181;28;20665;-79
2021/04/23 09:20:35;;;;;;;7.67;5.07;;;;;;;7.89;59.39;101657.63;5112013;28;20211;-79
2021/04/23 09:23:09;;;;;;;7.43;5.37;;;;;;;8.09;58.46;101657.84;5111084;28;20207;-78
2021/04/23 09:25:43;;;;;;;5.27;4.50;;;;;;;8.15;55.92;101655.31;5112932;27;20198;-81
2021/04/23 09:28:10;;;;;;;5.77;4.83;;;;;;;8.10;57.75;101650.91;5110503;28;20190;-80
2021/04/23 09:30:36;;;;;;;8.53;5.40;;;;;;;8.23;57.78;101658.00;5111059;28;20672;-79
2021/04/23 09:33:03;;;;;;;7.07;4.40;;;;;;;8.24;55.82;101656.25;5110610;28;20218;-77
2021/04/23 09:35:36;;;;;;;5.70;4.63;;;;;;;8.26;57.38;101651.94;5110549;28;20599;-78
2021/04/23 09:38:03;;;;;;;6.43;4.70;;;;;;;8.51;57.33;101650.50;5109901;28;20292;-80
2021/04/23 09:40:31;;;;;;;4.97;4.43;;;;;;;8.46;56.20;101650.47;5110921;28;20206;-79
2021/04/23 09:42:58;;;;;;;6.50;5.33;;;;;;;8.51;54.80;101647.88;5110344;28;20207;-78
2021/04/23 09:45:26;;;;;;;9.77;5.37;;;;;;;8.80;55.93;101642.03;5111667;28;20235;-79
2021/04/23 09:47:53;;;;;;;6.13;4.53;;;;;;;9.03;56.30;101644.81;5108753;28;20849;-78
2021/04/23 09:50:20;;;;;;;5.90;4.30;;;;;;;9.03;54.70;101645.69;5110155;28;20248;-79
2021/04/23 09:52:51;;;;;;;5.30;4.70;;;;;;;8.72;54.42;101648.06;5109497;28;20210;-79
2021/04/23 09:55:18;;;;;;;6.07;4.80;;;;;;;8.75;55.03;101649.81;5111814;28;20361;-79
2021/04/23 09:57:50;;;;;;;7.17;4.30;;;;;;;8.79;54.67;101650.72;5110673;28;20200;-79
2021/04/23 10:00:17;;;;;;;5.13;4.40;;;;;;;8.96;54.88;101646.53;5112326;28;20258;-79
2021/04/23 10:02:48;;;;;;;7.30;4.50;;;;;;;8.80;55.88;101661.16;5111588;28;20219;-79
2021/04/23 10:05:27;;;;;;;6.43;4.83;;;;;;;8.72;55.54;101655.88;5111250;28;20220;-78
2021/04/23 10:07:54;;;;;;;6.07;5.30;;;;;;;8.74;55.10;101661.09;5112519;28;20205;-79
2021/04/23 10:10:20;;;;;;;7.37;4.57;;;;;;;8.86;54.65;101658.59;5111569;28;20203;-80
2021/04/23 10:12:49;;;;;;;7.30;5.07;;;;;;;9.17;54.80;101657.94;5112039;28;20277;-78
2021/04/23 10:15:19;;;;;;;7.57;4.90;;;;;;;9.31;53.47;101659.75;5111927;28;20634;-79
2021/04/23 10:17:46;;;;;;;5.77;4.80;;;;;;;9.33;53.35;101665.84;5111795;28;20228;-79
2021/04/23 10:20:15;;;;;;;7.53;4.53;;;;;;;9.14;54.50;101670.09;5112203;28;20295;-78
2021/04/23 10:22:41;;;;;;;7.07;4.50;;;;;;;8.66;55.23;101668.84;5108291;28;20208;-77
2021/04/23 10:25:10;;;;;;;5.83;4.70;;;;;;;8.62;55.67;101668.78;5112226;28;20203;-78
2021/04/23 10:27:37;;;;;;;6.87;4.33;;;;;;;8.51;55.37;101659.16;5110324;28;20229;-78
2021/04/23 10:30:08;;;;;;;10.27;4.97;;;;;;;8.87;55.16;101657.72;5116608;28;20237;-78
2021/04/23 10:32:34;;;;;;;7.87;5.37;;;;;;;9.11;55.90;101651.81;5123343;28;20197;-79
2021/04/23 10:35:00;;;;;;;5.73;4.37;;;;;;;9.23;53.28;101660.59;5125788;28;20230;-78
2021/04/23 10:37:27;;;;;;;6.87;4.37;;;;;;;9.13;52.76;101660.50;5120239;28;20779;-77
2021/04/23 10:39:55;;;;;;;6.73;4.67;;;;;;;9.06;52.50;101663.09;5118832;28;20687;-77
2021/04/23 10:42:51;;;;;;;9.63;4.63;;;;;;;9.21;54.17;101657.97;5121215;28;20209;-78
2021/04/23 10:45:21;;;;;;;8.00;4.67;;;;;;;9.22;53.87;101654.50;5118431;28;20255;-77
2021/04/23 10:47:47;;;;;;;13.53;4.80;;;;;;;9.28;53.51;101664.09;5116465;28;20679;-76
2021/04/23 10:50:15;;;;;;;5.80;4.80;;;;;;;9.50;54.35;101652.91;5116447;28;20197;-78
2021/04/23 10:53:05;;;;;;;6.13;4.60;;;;;;;9.38;53.36;101652.00;5119410;28;20204;-80
2021/04/23 10:55:49;;;;;;;8.03;4.27;;;;;;;9.52;52.02;101659.00;5116484;28;20227;-79
2021/04/23 10:58:19;;;;;;;6.30;4.63;;;;;;;9.71;51.48;101653.88;5116668;28;20209;-80
2021/04/23 11:00:46;;;;;;;6.63;4.87;;;;;;;10.01;52.30;101653.13;5122601;28;20249;-79
2021/04/23 11:03:32;;;;;;;6.33;5.20;;;;;;;9.97;50.80;101647.88;5120756;28;20565;-79
2021/04/23 11:06:00;;;;;;;7.93;4.97;;;;;;;10.17;52.62;101654.03;5119829;28;20221;-80
2021/04/23 11:08:28;;;;;;;6.43;4.57;;;;;;;10.31;50.42;101644.53;5121418;28;20251;-79
2021/04/23 11:11:17;;;;;;;6.30;5.20;;;;;;;10.51;49.83;101646.31;5109941;27;20440;-77
2021/04/23 11:13:56;;;;;;;8.17;5.20;;;;;;;10.60;50.34;101648.03;5109948;28;20316;-77
2021/04/23 11:16:30;;;;;;;6.33;4.93;;;;;;;10.43;50.15;101654.13;5109688;28;20226;-76
2021/04/23 11:18:59;;;;;;;7.70;4.97;;;;;;;10.26;50.58;101654.03;5109408;28;20212;-77
2021/04/23 11:21:39;;;;;;;5.97;4.80;;;;;;;10.31;51.82;101654.97;5109137;27;20206;-77
2021/04/23 11:24:09;;;;;;;7.43;5.30;;;;;;;10.16;50.60;101651.44;5110182;27;20210;-77
2021/04/23 11:27:06;;;;;;;7.87;5.30;;;;;;;9.71;49.06;101643.44;5109887;27;20276;-77
2021/04/23 11:29:35;;;;;;;5.10;4.60;;;;;;;10.15;49.54;101658.38;5108907;28;20236;-77
2021/04/23 11:32:09;;;;;;;5.10;4.60;;;;;;;11.43;47.27;101647.94;5109752;27;20217;-77
2021/04/23 11:34:37;;;;;;;5.03;4.17;;;;;;;12.57;44.18;101648.25;5108847;28;20204;-77